sensor_id;sensor_type;location;lat;lon;timestamp;P1;durP1;ratioP1;P2;durP2;ratioP2
58354;SDS011;44160;49.080;19.302;2023-05-17T00:02:10;4.30;;;3.13;;
58354;SDS011;44160;49.080;19.302;2023-05-17T00:04:36;5.05;;;2.95;;
58354;SDS011;44160;49.080;19.302;2023-05-17T00:07:03;3.90;;;3.20;;
58354;SDS011;44160;49.080;19.302;2023-05-17T00:09:29;4.30;;;2.65;;
58354;SDS011;44160;49.080;19.302;2023-05-17T00:11:55;2.95;;;2.50;;
58354;SDS011;44160;49.080;19.302;2023-05-17T00:14:21;3.30;;;2.92;;
58354;SDS011;44160;49.080;19.302;2023-05-17T00:16:47;3.47;;;2.80;;
58354;SDS011;44160;49.080;19.302;2023-05-17T00:19:13;5.60;;;2.80;;
58354;SDS011;44160;49.080;19.302;2023-05-17T00:21:42;3.90;;;2.80;;
58354;SDS011;44160;49.080;19.302;2023-05-17T00:24:08;3.28;;;2.88;;
58354;SDS011;44160;49.080;19.302;2023-05-17T00:26:34;4.15;;;2.85;;
58354;SDS011;44160;49.080;19.302;2023-05-17T00:29:00;3.47;;;2.53;;
58354;SDS011;44160;49.080;19.302;2023-05-17T00:31:29;4.50;;;3.00;;
58354;SDS011;44160;49.080;19.302;2023-05-17T00:33:55;2.42;;;2.22;;
58354;SDS011;44160;49.080;19.302;2023-05-17T00:36:21;2.88;;;2.17;;
58354;SDS011;44160;49.080;19.302;2023-05-17T00:38:47;2.97;;;2.25;;
58354;SDS011;44160;49.080;19.302;2023-05-17T00:41:14;2.60;;;2.20;;
58354;SDS011;44160;49.080;19.302;2023-05-17T00:43:41;3.00;;;2.30;;
58354;SDS011;44160;49.080;19.302;2023-05-17T00:46:07;2.78;;;2.20;;
58354;SDS011;44160;49.080;19.302;2023-05-17T00:48:33;2.92;;;2.47;;
58354;SDS011;44160;49.080;19.302;2023-05-17T00:50:59;2.88;;;2.35;;
58354;SDS011;44160;49.080;19.302;2023-05-17T00:53:25;3.55;;;2.83;;
58354;SDS011;44160;49.080;19.302;2023-05-17T00:55:53;2.83;;;2.53;;
58354;SDS011;44160;49.080;19.302;2023-05-17T00:58:19;4.75;;;2.38;;
58354;SDS011;44160;49.080;19.302;2023-05-17T01:00:45;2.97;;;2.67;;
58354;SDS011;44160;49.080;19.302;2023-05-17T01:03:12;2.85;;;2.33;;
58354;SDS011;44160;49.080;19.302;2023-05-17T01:05:38;4.28;;;3.25;;
58354;SDS011;44160;49.080;19.302;2023-05-17T01:08:04;4.05;;;2.63;;
58354;SDS011;44160;49.080;19.302;2023-05-17T01:10:34;3.63;;;2.45;;
58354;SDS011;44160;49.080;19.302;2023-05-17T01:13:03;3.40;;;2.60;;
58354;SDS011;44160;49.080;19.302;2023-05-17T01:15:31;4.05;;;2.50;;
58354;SDS011;44160;49.080;19.302;2023-05-17T01:20:28;2.75;;;2.53;;
58354;SDS011;44160;49.080;19.302;2023-05-17T01:23:09;3.95;;;2.50;;
58354;SDS011;44160;49.080;19.302;2023-05-17T01:28:21;3.45;;;2.65;;
58354;SDS011;44160;49.080;19.302;2023-05-17T01:30:49;3.03;;;2.30;;
58354;SDS011;44160;49.080;19.302;2023-05-17T01:33:17;4.10;;;2.42;;
58354;SDS011;44160;49.080;19.302;2023-05-17T01:35:43;5.05;;;2.67;;
58354;SDS011;44160;49.080;19.302;2023-05-17T01:38:12;4.45;;;2.97;;
58354;SDS011;44160;49.080;19.302;2023-05-17T01:40:39;3.70;;;2.88;;
58354;SDS011;44160;49.080;19.302;2023-05-17T01:43:13;3.28;;;2.88;;
58354;SDS011;44160;49.080;19.302;2023-05-17T01:46:06;3.20;;;2.50;;
58354;SDS011;44160;49.080;19.302;2023-05-17T01:48:39;3.70;;;2.95;;
58354;SDS011;44160;49.080;19.302;2023-05-17T01:51:13;4.82;;;3.00;;
58354;SDS011;44160;49.080;19.302;2023-05-17T01:53:44;3.40;;;2.90;;
58354;SDS011;44160;49.080;19.302;2023-05-17T01:56:15;3.08;;;2.78;;
58354;SDS011;44160;49.080;19.302;2023-05-17T01:58:45;3.58;;;2.90;;
58354;SDS011;44160;49.080;19.302;2023-05-17T02:01:13;3.20;;;2.83;;
58354;SDS011;44160;49.080;19.302;2023-05-17T02:03:40;4.75;;;3.10;;
58354;SDS011;44160;49.080;19.302;2023-05-17T02:06:06;4.38;;;2.33;;
58354;SDS011;44160;49.080;19.302;2023-05-17T02:08:32;4.20;;;2.65;;
58354;SDS011;44160;49.080;19.302;2023-05-17T02:10:58;2.92;;;2.47;;
58354;SDS011;44160;49.080;19.302;2023-05-17T02:13:26;2.72;;;2.47;;
58354;SDS011;44160;49.080;19.302;2023-05-17T02:15:52;3.17;;;2.42;;
58354;SDS011;44160;49.080;19.302;2023-05-17T02:18:18;4.18;;;2.58;;
58354;SDS011;44160;49.080;19.302;2023-05-17T02:20:45;3.42;;;2.58;;
58354;SDS011;44160;49.080;19.302;2023-05-17T02:23:11;5.03;;;2.72;;
58354;SDS011;44160;49.080;19.302;2023-05-17T02:25:37;3.08;;;2.60;;
58354;SDS011;44160;49.080;19.302;2023-05-17T02:28:03;3.17;;;2.67;;
58354;SDS011;44160;49.080;19.302;2023-05-17T02:30:30;3.50;;;2.47;;
58354;SDS011;44160;49.080;19.302;2023-05-17T02:32:56;5.38;;;2.45;;
58354;SDS011;44160;49.080;19.302;2023-05-17T02:35:22;4.85;;;3.00;;
58354;SDS011;44160;49.080;19.302;2023-05-17T02:37:48;3.40;;;2.88;;
58354;SDS011;44160;49.080;19.302;2023-05-17T02:40:15;3.10;;;2.58;;
58354;SDS011;44160;49.080;19.302;2023-05-17T02:42:41;3.40;;;2.53;;
58354;SDS011;44160;49.080;19.302;2023-05-17T02:46:10;2.00;;;1.80;;
58354;SDS011;44160;49.080;19.302;2023-05-17T02:48:05;3.97;;;2.40;;
58354;SDS011;44160;49.080;19.302;2023-05-17T02:50:31;5.22;;;2.00;;
58354;SDS011;44160;49.080;19.302;2023-05-17T02:53:03;3.67;;;2.10;;
58354;SDS011;44160;49.080;19.302;2023-05-17T02:55:29;3.95;;;2.25;;
58354;SDS011;44160;49.080;19.302;2023-05-17T02:58:16;3.95;;;1.98;;
58354;SDS011;44160;49.080;19.302;2023-05-17T03:00:47;1.95;;;1.70;;
58354;SDS011;44160;49.080;19.302;2023-05-17T03:03:17;2.92;;;1.90;;
58354;SDS011;44160;49.080;19.302;2023-05-17T03:05:51;2.47;;;1.90;;
58354;SDS011;44160;49.080;19.302;2023-05-17T03:08:17;2.58;;;1.73;;
58354;SDS011;44160;49.080;19.302;2023-05-17T03:10:46;5.82;;;2.00;;
58354;SDS011;44160;49.080;19.302;2023-05-17T03:13:12;4.50;;;1.75;;
58354;SDS011;44160;49.080;19.302;2023-05-17T03:15:38;2.53;;;1.77;;
58354;SDS011;44160;49.080;19.302;2023-05-17T03:18:04;2.53;;;1.52;;
58354;SDS011;44160;49.080;19.302;2023-05-17T03:20:38;2.78;;;1.85;;
58354;SDS011;44160;49.080;19.302;2023-05-17T03:23:04;1.98;;;1.45;;
58354;SDS011;44160;49.080;19.302;2023-05-17T03:25:30;2.85;;;1.48;;
58354;SDS011;44160;49.080;19.302;2023-05-17T03:27:59;2.20;;;1.60;;
58354;SDS011;44160;49.080;19.302;2023-05-17T03:30:25;1.42;;;1.20;;
58354;SDS011;44160;49.080;19.302;2023-05-17T03:32:51;2.33;;;1.50;;
58354;SDS011;44160;49.080;19.302;2023-05-17T03:35:18;1.85;;;1.35;;
58354;SDS011;44160;49.080;19.302;2023-05-17T03:37:44;1.75;;;1.55;;
58354;SDS011;44160;49.080;19.302;2023-05-17T03:40:10;1.98;;;1.42;;
58354;SDS011;44160;49.080;19.302;2023-05-17T03:42:36;2.25;;;1.70;;
58354;SDS011;44160;49.080;19.302;2023-05-17T03:45:03;1.73;;;1.50;;
58354;SDS011;44160;49.080;19.302;2023-05-17T03:47:29;3.42;;;2.28;;
58354;SDS011;44160;49.080;19.302;2023-05-17T03:49:55;4.22;;;2.15;;
58354;SDS011;44160;49.080;19.302;2023-05-17T03:52:21;3.50;;;2.50;;
58354;SDS011;44160;49.080;19.302;2023-05-17T03:54:47;4.88;;;3.20;;
58354;SDS011;44160;49.080;19.302;2023-05-17T03:57:13;3.60;;;2.60;;
58354;SDS011;44160;49.080;19.302;2023-05-17T03:59:39;7.22;;;2.88;;
58354;SDS011;44160;49.080;19.302;2023-05-17T04:02:05;3.05;;;2.60;;
58354;SDS011;44160;49.080;19.302;2023-05-17T04:04:31;2.50;;;1.98;;
58354;SDS011;44160;49.080;19.302;2023-05-17T04:07:00;3.40;;;2.45;;
58354;SDS011;44160;49.080;19.302;2023-05-17T04:09:26;6.28;;;2.38;;
58354;SDS011;44160;49.080;19.302;2023-05-17T04:11:53;3.72;;;2.40;;
58354;SDS011;44160;49.080;19.302;2023-05-17T04:14:22;7.35;;;2.05;;
58354;SDS011;44160;49.080;19.302;2023-05-17T04:16:48;3.47;;;1.80;;
58354;SDS011;44160;49.080;19.302;2023-05-17T04:19:17;2.65;;;1.35;;
58354;SDS011;44160;49.080;19.302;2023-05-17T04:21:44;4.07;;;1.45;;
58354;SDS011;44160;49.080;19.302;2023-05-17T04:24:10;1.60;;;1.33;;
58354;SDS011;44160;49.080;19.302;2023-05-17T04:26:36;3.00;;;1.52;;
58354;SDS011;44160;49.080;19.302;2023-05-17T04:29:12;1.70;;;1.52;;
58354;SDS011;44160;49.080;19.302;2023-05-17T04:31:45;2.05;;;1.60;;
58354;SDS011;44160;49.080;19.302;2023-05-17T04:34:13;2.78;;;1.50;;
58354;SDS011;44160;49.080;19.302;2023-05-17T04:36:39;2.65;;;1.30;;
58354;SDS011;44160;49.080;19.302;2023-05-17T04:39:05;3.30;;;1.30;;
58354;SDS011;44160;49.080;19.302;2023-05-17T04:41:31;4.20;;;1.80;;
58354;SDS011;44160;49.080;19.302;2023-05-17T04:43:57;1.13;;;0.90;;
58354;SDS011;44160;49.080;19.302;2023-05-17T04:46:23;0.88;;;0.75;;
58354;SDS011;44160;49.080;19.302;2023-05-17T04:48:50;1.35;;;0.88;;
58354;SDS011;44160;49.080;19.302;2023-05-17T04:51:17;1.02;;;0.80;;
58354;SDS011;44160;49.080;19.302;2023-05-17T04:53:43;0.65;;;0.60;;
58354;SDS011;44160;49.080;19.302;2023-05-17T04:56:09;1.15;;;0.73;;
58354;SDS011;44160;49.080;19.302;2023-05-17T04:58:35;1.02;;;0.75;;
58354;SDS011;44160;49.080;19.302;2023-05-17T05:01:01;3.75;;;1.10;;
58354;SDS011;44160;49.080;19.302;2023-05-17T05:03:27;1.00;;;0.60;;
58354;SDS011;44160;49.080;19.302;2023-05-17T05:05:53;0.70;;;0.68;;
58354;SDS011;44160;49.080;19.302;2023-05-17T05:08:20;0.68;;;0.60;;
58354;SDS011;44160;49.080;19.302;2023-05-17T05:10:46;1.35;;;0.50;;
58354;SDS011;44160;49.080;19.302;2023-05-17T05:16:15;1.08;;;0.82;;
58354;SDS011;44160;49.080;19.302;2023-05-17T05:18:41;1.20;;;0.70;;
58354;SDS011;44160;49.080;19.302;2023-05-17T05:21:07;1.10;;;0.70;;
58354;SDS011;44160;49.080;19.302;2023-05-17T05:23:33;0.80;;;0.70;;
58354;SDS011;44160;49.080;19.302;2023-05-17T05:25:59;0.50;;;0.50;;
58354;SDS011;44160;49.080;19.302;2023-05-17T05:28:25;0.50;;;0.50;;
58354;SDS011;44160;49.080;19.302;2023-05-17T05:31:00;0.60;;;0.60;;
58354;SDS011;44160;49.080;19.302;2023-05-17T05:33:27;1.35;;;0.57;;
58354;SDS011;44160;49.080;19.302;2023-05-17T05:35:53;1.15;;;0.50;;
58354;SDS011;44160;49.080;19.302;2023-05-17T05:38:19;1.15;;;0.68;;
58354;SDS011;44160;49.080;19.302;2023-05-17T05:40:45;1.00;;;0.70;;
58354;SDS011;44160;49.080;19.302;2023-05-17T05:43:14;0.63;;;0.52;;
58354;SDS011;44160;49.080;19.302;2023-05-17T05:45:40;0.77;;;0.70;;
58354;SDS011;44160;49.080;19.302;2023-05-17T05:48:11;0.60;;;0.60;;
58354;SDS011;44160;49.080;19.302;2023-05-17T05:50:37;0.93;;;0.50;;
58354;SDS011;44160;49.080;19.302;2023-05-17T05:53:03;0.57;;;0.57;;
58354;SDS011;44160;49.080;19.302;2023-05-17T05:55:30;0.73;;;0.60;;
58354;SDS011;44160;49.080;19.302;2023-05-17T05:57:56;0.50;;;0.50;;
58354;SDS011;44160;49.080;19.302;2023-05-17T06:00:25;0.50;;;0.50;;
58354;SDS011;44160;49.080;19.302;2023-05-17T06:02:52;1.58;;;0.60;;
58354;SDS011;44160;49.080;19.302;2023-05-17T06:05:18;0.45;;;0.40;;
58354;SDS011;44160;49.080;19.302;2023-05-17T06:07:44;0.40;;;0.40;;
58354;SDS011;44160;49.080;19.302;2023-05-17T06:10:10;3.08;;;0.50;;
58354;SDS011;44160;49.080;19.302;2023-05-17T06:12:46;1.35;;;0.57;;
58354;SDS011;44160;49.080;19.302;2023-05-17T06:15:12;8.52;;;1.20;;
58354;SDS011;44160;49.080;19.302;2023-05-17T06:17:38;1.65;;;0.90;;
58354;SDS011;44160;49.080;19.302;2023-05-17T06:20:04;4.50;;;1.08;;
58354;SDS011;44160;49.080;19.302;2023-05-17T06:22:30;1.15;;;0.80;;
58354;SDS011;44160;49.080;19.302;2023-05-17T06:24:56;0.93;;;0.68;;
58354;SDS011;44160;49.080;19.302;2023-05-17T06:27:23;0.80;;;0.70;;
58354;SDS011;44160;49.080;19.302;2023-05-17T06:29:49;0.80;;;0.50;;
58354;SDS011;44160;49.080;19.302;2023-05-17T06:32:15;0.98;;;0.50;;
58354;SDS011;44160;49.080;19.302;2023-05-17T06:34:41;1.35;;;1.15;;
58354;SDS011;44160;49.080;19.302;2023-05-17T06:37:07;1.70;;;0.50;;
58354;SDS011;44160;49.080;19.302;2023-05-17T06:39:33;1.45;;;0.50;;
58354;SDS011;44160;49.080;19.302;2023-05-17T06:42:02;3.33;;;0.60;;
58354;SDS011;44160;49.080;19.302;2023-05-17T06:44:29;1.75;;;0.70;;
58354;SDS011;44160;49.080;19.302;2023-05-17T06:46:55;1.33;;;0.70;;
58354;SDS011;44160;49.080;19.302;2023-05-17T06:49:21;0.88;;;0.70;;
58354;SDS011;44160;49.080;19.302;2023-05-17T06:51:47;2.15;;;1.00;;
58354;SDS011;44160;49.080;19.302;2023-05-17T06:54:13;0.90;;;0.70;;
58354;SDS011;44160;49.080;19.302;2023-05-17T06:56:39;1.60;;;0.80;;
58354;SDS011;44160;49.080;19.302;2023-05-17T06:59:05;0.47;;;0.45;;
58354;SDS011;44160;49.080;19.302;2023-05-17T07:01:31;0.85;;;0.85;;
58354;SDS011;44160;49.080;19.302;2023-05-17T07:04:01;11.18;;;0.55;;
58354;SDS011;44160;49.080;19.302;2023-05-17T07:06:27;0.40;;;0.40;;
58354;SDS011;44160;49.080;19.302;2023-05-17T07:08:53;0.70;;;0.68;;
58354;SDS011;44160;49.080;19.302;2023-05-17T07:11:19;0.80;;;0.80;;
58354;SDS011;44160;49.080;19.302;2023-05-17T07:13:45;1.88;;;1.27;;
58354;SDS011;44160;49.080;19.302;2023-05-17T07:16:16;2.88;;;0.65;;
58354;SDS011;44160;49.080;19.302;2023-05-17T07:18:44;3.45;;;1.30;;
58354;SDS011;44160;49.080;19.302;2023-05-17T07:21:16;0.50;;;0.50;;
58354;SDS011;44160;49.080;19.302;2023-05-17T07:23:44;3.38;;;0.70;;
58354;SDS011;44160;49.080;19.302;2023-05-17T07:26:11;0.70;;;0.70;;
58354;SDS011;44160;49.080;19.302;2023-05-17T07:28:37;0.60;;;0.60;;
58354;SDS011;44160;49.080;19.302;2023-05-17T07:31:03;0.82;;;0.75;;
58354;SDS011;44160;49.080;19.302;2023-05-17T07:33:29;0.50;;;0.50;;
58354;SDS011;44160;49.080;19.302;2023-05-17T07:35:56;2.55;;;0.50;;
58354;SDS011;44160;49.080;19.302;2023-05-17T07:38:22;0.50;;;0.50;;
58354;SDS011;44160;49.080;19.302;2023-05-17T07:40:48;1.65;;;0.60;;
58354;SDS011;44160;49.080;19.302;2023-05-17T07:43:14;1.55;;;1.10;;
58354;SDS011;44160;49.080;19.302;2023-05-17T07:45:42;1.15;;;0.80;;
58354;SDS011;44160;49.080;19.302;2023-05-17T07:48:08;0.80;;;0.80;;
58354;SDS011;44160;49.080;19.302;2023-05-17T07:50:34;0.70;;;0.70;;
58354;SDS011;44160;49.080;19.302;2023-05-17T07:53:00;0.68;;;0.68;;
58354;SDS011;44160;49.080;19.302;2023-05-17T07:55:30;0.50;;;0.50;;
58354;SDS011;44160;49.080;19.302;2023-05-17T07:57:56;2.20;;;0.60;;
58354;SDS011;44160;49.080;19.302;2023-05-17T08:00:22;4.60;;;3.30;;
58354;SDS011;44160;49.080;19.302;2023-05-17T08:02:49;3.38;;;2.53;;
58354;SDS011;44160;49.080;19.302;2023-05-17T08:05:15;5.07;;;4.03;;
58354;SDS011;44160;49.080;19.302;2023-05-17T08:07:41;3.92;;;2.22;;
58354;SDS011;44160;49.080;19.302;2023-05-17T08:10:08;3.08;;;2.10;;
58354;SDS011;44160;49.080;19.302;2023-05-17T08:12:34;2.67;;;2.28;;
58354;SDS011;44160;49.080;19.302;2023-05-17T08:15:00;4.65;;;1.92;;
58354;SDS011;44160;49.080;19.302;2023-05-17T08:17:29;1.60;;;1.30;;
58354;SDS011;44160;49.080;19.302;2023-05-17T08:19:55;1.63;;;1.23;;
58354;SDS011;44160;49.080;19.302;2023-05-17T08:22:21;3.42;;;1.73;;
58354;SDS011;44160;49.080;19.302;2023-05-17T08:24:48;2.15;;;1.58;;
58354;SDS011;44160;49.080;19.302;2023-05-17T08:27:14;4.75;;;1.50;;
58354;SDS011;44160;49.080;19.302;2023-05-17T08:29:41;2.30;;;1.60;;
58354;SDS011;44160;49.080;19.302;2023-05-17T08:32:07;5.15;;;3.28;;
58354;SDS011;44160;49.080;19.302;2023-05-17T08:34:33;4.55;;;3.33;;
58354;SDS011;44160;49.080;19.302;2023-05-17T08:37:00;5.82;;;2.60;;
58354;SDS011;44160;49.080;19.302;2023-05-17T08:39:30;4.22;;;2.08;;
58354;SDS011;44160;49.080;19.302;2023-05-17T08:41:56;7.35;;;4.10;;
58354;SDS011;44160;49.080;19.302;2023-05-17T08:44:23;3.92;;;2.72;;
58354;SDS011;44160;49.080;19.302;2023-05-17T08:46:50;5.30;;;3.30;;
58354;SDS011;44160;49.080;19.302;2023-05-17T08:49:21;5.50;;;2.88;;
58354;SDS011;44160;49.080;19.302;2023-05-17T08:51:52;4.25;;;3.00;;
58354;SDS011;44160;49.080;19.302;2023-05-17T08:54:24;4.93;;;2.85;;
58354;SDS011;44160;49.080;19.302;2023-05-17T08:56:52;4.40;;;3.05;;
58354;SDS011;44160;49.080;19.302;2023-05-17T08:59:18;6.55;;;2.45;;
58354;SDS011;44160;49.080;19.302;2023-05-17T09:02:06;3.03;;;1.73;;
58354;SDS011;44160;49.080;19.302;2023-05-17T09:04:31;5.53;;;2.53;;
58354;SDS011;44160;49.080;19.302;2023-05-17T09:06:58;3.33;;;2.15;;
58354;SDS011;44160;49.080;19.302;2023-05-17T09:09:24;3.22;;;2.20;;
58354;SDS011;44160;49.080;19.302;2023-05-17T09:11:54;3.50;;;1.90;;
58354;SDS011;44160;49.080;19.302;2023-05-17T09:14:23;6.03;;;1.75;;
58354;SDS011;44160;49.080;19.302;2023-05-17T09:16:54;4.75;;;1.85;;
58354;SDS011;44160;49.080;19.302;2023-05-17T09:19:22;1.85;;;1.33;;
58354;SDS011;44160;49.080;19.302;2023-05-17T09:21:49;3.05;;;1.80;;
58354;SDS011;44160;49.080;19.302;2023-05-17T09:24:18;6.85;;;4.22;;
58354;SDS011;44160;49.080;19.302;2023-05-17T09:26:51;12.05;;;8.55;;
58354;SDS011;44160;49.080;19.302;2023-05-17T09:29:18;26.50;;;14.75;;
58354;SDS011;44160;49.080;19.302;2023-05-17T09:31:49;7.90;;;4.82;;
58354;SDS011;44160;49.080;19.302;2023-05-17T09:34:19;3.67;;;2.47;;
58354;SDS011;44160;49.080;19.302;2023-05-17T09:36:52;3.05;;;1.40;;
58354;SDS011;44160;49.080;19.302;2023-05-17T09:39:28;4.15;;;2.90;;
58354;SDS011;44160;49.080;19.302;2023-05-17T09:41:59;2.47;;;1.35;;
58354;SDS011;44160;49.080;19.302;2023-05-17T09:44:28;0.93;;;0.68;;
58354;SDS011;44160;49.080;19.302;2023-05-17T09:46:56;1.20;;;0.90;;
58354;SDS011;44160;49.080;19.302;2023-05-17T09:49:25;2.00;;;1.33;;
58354;SDS011;44160;49.080;19.302;2023-05-17T09:51:55;1.40;;;0.90;;
58354;SDS011;44160;49.080;19.302;2023-05-17T09:54:25;0.70;;;0.70;;
58354;SDS011;44160;49.080;19.302;2023-05-17T09:56:59;7.05;;;2.88;;
58354;SDS011;44160;49.080;19.302;2023-05-17T09:59:31;1.90;;;1.30;;
58354;SDS011;44160;49.080;19.302;2023-05-17T10:01:57;1.98;;;1.20;;
58354;SDS011;44160;49.080;19.302;2023-05-17T10:04:24;1.00;;;0.90;;
58354;SDS011;44160;49.080;19.302;2023-05-17T10:06:56;3.38;;;2.45;;
58354;SDS011;44160;49.080;19.302;2023-05-17T10:09:24;2.22;;;1.58;;
58354;SDS011;44160;49.080;19.302;2023-05-17T10:11:57;1.75;;;0.90;;
58354;SDS011;44160;49.080;19.302;2023-05-17T10:14:26;1.17;;;1.00;;
58354;SDS011;44160;49.080;19.302;2023-05-17T10:16:53;0.75;;;0.70;;
58354;SDS011;44160;49.080;19.302;2023-05-17T10:19:23;0.95;;;0.68;;
58354;SDS011;44160;49.080;19.302;2023-05-17T10:21:49;0.63;;;0.63;;
58354;SDS011;44160;49.080;19.302;2023-05-17T10:24:16;1.05;;;0.77;;
58354;SDS011;44160;49.080;19.302;2023-05-17T10:26:43;0.85;;;0.70;;
58354;SDS011;44160;49.080;19.302;2023-05-17T10:29:09;0.77;;;0.60;;
58354;SDS011;44160;49.080;19.302;2023-05-17T10:31:36;2.78;;;0.80;;
58354;SDS011;44160;49.080;19.302;2023-05-17T10:34:05;1.88;;;1.35;;
58354;SDS011;44160;49.080;19.302;2023-05-17T10:36:32;1.17;;;0.80;;
58354;SDS011;44160;49.080;19.302;2023-05-17T10:38:58;2.42;;;1.85;;
58354;SDS011;44160;49.080;19.302;2023-05-17T10:41:26;1.15;;;0.85;;
58354;SDS011;44160;49.080;19.302;2023-05-17T10:43:53;1.90;;;1.33;;
58354;SDS011;44160;49.080;19.302;2023-05-17T10:46:20;3.50;;;0.75;;
58354;SDS011;44160;49.080;19.302;2023-05-17T10:48:51;1.58;;;0.77;;
58354;SDS011;44160;49.080;19.302;2023-05-17T10:51:21;1.17;;;0.98;;
58354;SDS011;44160;49.080;19.302;2023-05-17T10:54:08;1.02;;;0.80;;
58354;SDS011;44160;49.080;19.302;2023-05-17T10:56:37;0.90;;;0.70;;
58354;SDS011;44160;49.080;19.302;2023-05-17T10:59:17;1.30;;;0.70;;
58354;SDS011;44160;49.080;19.302;2023-05-17T11:07:19;3.58;;;1.13;;
58354;SDS011;44160;49.080;19.302;2023-05-17T11:12:46;0.75;;;0.75;;
58354;SDS011;44160;49.080;19.302;2023-05-17T11:22:58;1.42;;;0.90;;
58354;SDS011;44160;49.080;19.302;2023-05-17T11:25:30;7.32;;;4.25;;
58354;SDS011;44160;49.080;19.302;2023-05-17T11:27:59;1.83;;;1.30;;
58354;SDS011;44160;49.080;19.302;2023-05-17T11:30:27;0.93;;;0.80;;
58354;SDS011;44160;49.080;19.302;2023-05-17T11:33:03;1.50;;;1.08;;
58354;SDS011;44160;49.080;19.302;2023-05-17T11:35:34;3.30;;;1.05;;
58354;SDS011;44160;49.080;19.302;2023-05-17T11:38:34;1.15;;;0.80;;
58354;SDS011;44160;49.080;19.302;2023-05-17T11:40:56;0.88;;;0.73;;
58354;SDS011;44160;49.080;19.302;2023-05-17T11:43:25;0.73;;;0.70;;
58354;SDS011;44160;49.080;19.302;2023-05-17T11:45:56;1.58;;;0.95;;
58354;SDS011;44160;49.080;19.302;2023-05-17T11:48:23;1.13;;;0.90;;
58354;SDS011;44160;49.080;19.302;2023-05-17T11:50:50;1.20;;;0.98;;
58354;SDS011;44160;49.080;19.302;2023-05-17T11:53:17;1.35;;;1.00;;
58354;SDS011;44160;49.080;19.302;2023-05-17T11:55:44;1.20;;;0.77;;
58354;SDS011;44160;49.080;19.302;2023-05-17T11:58:24;1.27;;;0.80;;
58354;SDS011;44160;49.080;19.302;2023-05-17T12:00:54;0.90;;;0.77;;
58354;SDS011;44160;49.080;19.302;2023-05-17T12:03:21;0.60;;;0.60;;
58354;SDS011;44160;49.080;19.302;2023-05-17T12:05:49;4.07;;;1.77;;
58354;SDS011;44160;49.080;19.302;2023-05-17T12:08:15;1.10;;;1.00;;
58354;SDS011;44160;49.080;19.302;2023-05-17T12:10:46;2.22;;;0.82;;
58354;SDS011;44160;49.080;19.302;2023-05-17T12:13:13;2.13;;;0.90;;
58354;SDS011;44160;49.080;19.302;2023-05-17T12:15:40;1.00;;;0.90;;
58354;SDS011;44160;49.080;19.302;2023-05-17T12:18:09;0.77;;;0.70;;
58354;SDS011;44160;49.080;19.302;2023-05-17T12:20:35;0.70;;;0.70;;
58354;SDS011;44160;49.080;19.302;2023-05-17T12:23:03;1.73;;;0.88;;
58354;SDS011;44160;49.080;19.302;2023-05-17T12:25:29;2.00;;;1.23;;
58354;SDS011;44160;49.080;19.302;2023-05-17T12:30:40;2.65;;;0.80;;
58354;SDS011;44160;49.080;19.302;2023-05-17T12:33:06;1.33;;;0.98;;
58354;SDS011;44160;49.080;19.302;2023-05-17T12:35:35;0.70;;;0.60;;
58354;SDS011;44160;49.080;19.302;2023-05-17T12:38:01;1.33;;;0.90;;
58354;SDS011;44160;49.080;19.302;2023-05-17T12:40:28;1.02;;;0.80;;
58354;SDS011;44160;49.080;19.302;2023-05-17T12:43:00;1.83;;;1.00;;
58354;SDS011;44160;49.080;19.302;2023-05-17T12:45:32;2.22;;;0.90;;
58354;SDS011;44160;49.080;19.302;2023-05-17T12:47:59;0.70;;;0.70;;
58354;SDS011;44160;49.080;19.302;2023-05-17T12:50:29;3.42;;;0.95;;
58354;SDS011;44160;49.080;19.302;2023-05-17T12:52:56;2.92;;;1.48;;
58354;SDS011;44160;49.080;19.302;2023-05-17T12:55:23;2.25;;;1.05;;
58354;SDS011;44160;49.080;19.302;2023-05-17T12:57:53;1.20;;;0.85;;
58354;SDS011;44160;49.080;19.302;2023-05-17T13:00:19;1.17;;;0.90;;
58354;SDS011;44160;49.080;19.302;2023-05-17T13:02:46;2.10;;;1.20;;
58354;SDS011;44160;49.080;19.302;2023-05-17T13:05:13;1.88;;;1.30;;
58354;SDS011;44160;49.080;19.302;2023-05-17T13:07:39;4.50;;;1.65;;
58354;SDS011;44160;49.080;19.302;2023-05-17T13:10:18;4.05;;;1.23;;
58354;SDS011;44160;49.080;19.302;2023-05-17T13:12:52;3.28;;;1.15;;
58354;SDS011;44160;49.080;19.302;2023-05-17T13:15:28;1.35;;;1.00;;
58354;SDS011;44160;49.080;19.302;2023-05-17T13:17:58;6.10;;;2.75;;
58354;SDS011;44160;49.080;19.302;2023-05-17T13:20:27;4.88;;;1.55;;
58354;SDS011;44160;49.080;19.302;2023-05-17T13:25:48;7.60;;;3.75;;
58354;SDS011;44160;49.080;19.302;2023-05-17T13:28:27;3.13;;;1.90;;
58354;SDS011;44160;49.080;19.302;2023-05-17T13:30:53;3.35;;;1.67;;
58354;SDS011;44160;49.080;19.302;2023-05-17T13:33:20;1.10;;;0.90;;
58354;SDS011;44160;49.080;19.302;2023-05-17T13:35:50;1.40;;;0.95;;
58354;SDS011;44160;49.080;19.302;2023-05-17T13:38:19;3.70;;;1.90;;
58354;SDS011;44160;49.080;19.302;2023-05-17T13:40:45;1.20;;;1.00;;
58354;SDS011;44160;49.080;19.302;2023-05-17T13:43:11;1.75;;;1.30;;
58354;SDS011;44160;49.080;19.302;2023-05-17T13:45:39;2.63;;;1.65;;
58354;SDS011;44160;49.080;19.302;2023-05-17T13:48:05;1.77;;;1.23;;
58354;SDS011;44160;49.080;19.302;2023-05-17T13:50:39;2.45;;;1.45;;
58354;SDS011;44160;49.080;19.302;2023-05-17T13:53:06;2.40;;;1.40;;
58354;SDS011;44160;49.080;19.302;2023-05-17T13:55:32;1.58;;;1.10;;
58354;SDS011;44160;49.080;19.302;2023-05-17T13:57:58;1.58;;;1.10;;
58354;SDS011;44160;49.080;19.302;2023-05-17T14:00:24;3.20;;;1.73;;
58354;SDS011;44160;49.080;19.302;2023-05-17T14:02:50;2.72;;;1.10;;
58354;SDS011;44160;49.080;19.302;2023-05-17T14:05:19;1.85;;;1.20;;
58354;SDS011;44160;49.080;19.302;2023-05-17T14:07:49;2.03;;;1.20;;
58354;SDS011;44160;49.080;19.302;2023-05-17T14:10:26;3.45;;;1.17;;
58354;SDS011;44160;49.080;19.302;2023-05-17T14:12:58;2.40;;;1.40;;
58354;SDS011;44160;49.080;19.302;2023-05-17T14:15:24;2.92;;;1.90;;
58354;SDS011;44160;49.080;19.302;2023-05-17T14:17:52;4.60;;;1.63;;
58354;SDS011;44160;49.080;19.302;2023-05-17T14:20:19;2.05;;;1.60;;
58354;SDS011;44160;49.080;19.302;2023-05-17T14:22:45;3.95;;;1.92;;
58354;SDS011;44160;49.080;19.302;2023-05-17T14:25:11;3.70;;;2.08;;
58354;SDS011;44160;49.080;19.302;2023-05-17T14:27:41;4.78;;;3.03;;
58354;SDS011;44160;49.080;19.302;2023-05-17T14:33:15;6.95;;;3.20;;
58354;SDS011;44160;49.080;19.302;2023-05-17T14:35:42;3.55;;;1.20;;
58354;SDS011;44160;49.080;19.302;2023-05-17T14:38:15;3.05;;;1.92;;
58354;SDS011;44160;49.080;19.302;2023-05-17T14:40:44;1.45;;;1.17;;
58354;SDS011;44160;49.080;19.302;2023-05-17T14:43:10;2.22;;;1.80;;
58354;SDS011;44160;49.080;19.302;2023-05-17T14:45:36;1.65;;;1.20;;
58354;SDS011;44160;49.080;19.302;2023-05-17T14:48:06;1.67;;;1.10;;
58354;SDS011;44160;49.080;19.302;2023-05-17T14:50:32;2.35;;;1.40;;
58354;SDS011;44160;49.080;19.302;2023-05-17T14:52:59;1.30;;;1.10;;
58354;SDS011;44160;49.080;19.302;2023-05-17T14:55:25;2.08;;;1.40;;
58354;SDS011;44160;49.080;19.302;2023-05-17T14:57:51;1.60;;;1.10;;
58354;SDS011;44160;49.080;19.302;2023-05-17T15:00:26;1.33;;;1.10;;
58354;SDS011;44160;49.080;19.302;2023-05-17T15:02:59;1.65;;;1.17;;
58354;SDS011;44160;49.080;19.302;2023-05-17T15:05:28;3.63;;;2.10;;
58354;SDS011;44160;49.080;19.302;2023-05-17T15:07:58;5.57;;;1.20;;
58354;SDS011;44160;49.080;19.302;2023-05-17T15:10:32;2.38;;;1.50;;
58354;SDS011;44160;49.080;19.302;2023-05-17T15:12:59;1.00;;;0.90;;